createdAt,value
2018-03-22T00:02:13.244Z,-4.47
2018-03-22T00:04:55.569Z,-4.59
2018-03-22T00:07:32.697Z,-4.71
2018-03-22T00:10:01.768Z,-4.76
2018-03-22T00:12:41.352Z,-4.76
2018-03-22T00:15:11.374Z,-4.83
2018-03-22T00:20:15.673Z,-4.91
2018-03-22T00:22:49.265Z,-4.94
2018-03-22T00:25:18.335Z,-4.88
2018-03-22T00:27:47.408Z,-4.77
2018-03-22T00:30:17.459Z,-4.62
2018-03-22T00:32:46.536Z,-4.57
2018-03-22T00:35:15.707Z,-4.49
2018-03-22T00:37:44.779Z,-4.54
2018-03-22T00:40:13.896Z,-4.53
2018-03-22T00:43:01.059Z,-4.48
2018-03-22T00:45:35.803Z,-4.59
2018-03-22T00:48:05.742Z,-4.63
2018-03-22T00:50:34.795Z,-4.67
2018-03-22T00:53:03.865Z,-4.63
2018-03-22T00:58:16.178Z,-4.61
2018-03-22T01:00:45.284Z,-4.63
2018-03-22T01:05:51.621Z,-4.60
2018-03-22T01:08:20.700Z,-4.54
2018-03-22T01:10:53.538Z,-4.49
2018-03-22T01:13:22.596Z,-4.54
2018-03-22T01:15:51.672Z,-4.59
2018-03-22T01:18:22.600Z,-4.57
2018-03-22T01:20:51.672Z,-4.63
2018-03-22T01:23:21.233Z,-4.59
2018-03-22T01:25:55.915Z,-4.66
2018-03-22T01:28:24.984Z,-4.75
2018-03-22T01:30:54.177Z,-4.81
2018-03-22T01:33:23.230Z,-4.84
2018-03-22T01:38:27.499Z,-5.01
2018-03-22T01:40:56.569Z,-5.06
2018-03-22T01:43:25.711Z,-5.12
2018-03-22T01:48:36.917Z,-4.94
2018-03-22T01:53:55.894Z,-4.75
2018-03-22T01:56:24.963Z,-4.67
2018-03-22T01:58:57.043Z,-4.62
2018-03-22T02:01:26.220Z,-4.69
2018-03-22T02:03:55.295Z,-4.70
2018-03-22T02:06:32.389Z,-4.85
2018-03-22T02:09:01.439Z,-4.90
2018-03-22T02:11:32.460Z,-4.90
2018-03-22T02:14:01.619Z,-4.83
2018-03-22T02:16:30.867Z,-4.83
2018-03-22T02:18:59.939Z,-4.87
2018-03-22T02:21:34.574Z,-4.95
2018-03-22T02:24:03.710Z,-4.99
2018-03-22T02:26:32.789Z,-5.09
2018-03-22T02:29:01.830Z,-5.12
2018-03-22T02:31:31.001Z,-5.19
2018-03-22T02:34:00.039Z,-5.19
2018-03-22T02:36:44.701Z,-5.23
2018-03-22T02:39:14.738Z,-5.38
2018-03-22T02:41:44.785Z,-5.39
2018-03-22T02:44:17.547Z,-5.52
2018-03-22T02:49:21.816Z,-5.60
2018-03-22T02:51:50.878Z,-5.65
2018-03-22T02:54:27.530Z,-5.74
2018-03-22T02:56:56.591Z,-5.68
2018-03-22T02:59:44.703Z,-5.54
2018-03-22T03:02:15.715Z,-5.47
2018-03-22T03:04:44.787Z,-5.38
2018-03-22T03:07:13.903Z,-5.35
2018-03-22T03:09:42.939Z,-5.40
2018-03-22T03:12:11.987Z,-5.36
2018-03-22T03:14:45.899Z,-5.37
2018-03-22T03:17:14.965Z,-5.38
2018-03-22T03:19:45.939Z,-5.42
2018-03-22T03:22:16.072Z,-5.38
2018-03-22T03:27:20.783Z,-5.29
2018-03-22T03:29:50.104Z,-5.31
2018-03-22T03:32:19.203Z,-5.33
2018-03-22T03:34:48.239Z,-5.37
2018-03-22T03:37:17.359Z,-5.47
2018-03-22T03:39:51.760Z,-5.43
2018-03-22T03:42:20.967Z,-5.53
2018-03-22T03:47:25.252Z,-5.51
2018-03-22T03:50:01.978Z,-5.51
2018-03-22T03:52:52.652Z,-5.58
2018-03-22T03:55:21.790Z,-5.64
2018-03-22T03:57:54.951Z,-5.54
2018-03-22T04:00:24.191Z,-5.56
2018-03-22T04:05:28.718Z,-5.69
2018-03-22T04:08:03.144Z,-5.74
2018-03-22T04:10:32.456Z,-5.85
2018-03-22T04:13:06.119Z,-5.89
2018-03-22T04:15:35.326Z,-5.98
2018-03-22T04:18:07.586Z,-6.02
2018-03-22T04:20:36.896Z,-5.99
2018-03-22T04:23:05.955Z,-6.03
2018-03-22T04:25:35.904Z,-6.12
2018-03-22T04:28:06.019Z,-6.16
2018-03-22T04:30:35.388Z,-6.14
2018-03-22T04:33:05.396Z,-6.16
2018-03-22T04:35:35.396Z,-6.17
2018-03-22T04:38:09.982Z,-6.16
2018-03-22T04:40:39.023Z,-6.19
2018-03-22T04:43:12.474Z,-6.23
2018-03-22T04:45:41.536Z,-6.11
2018-03-22T04:50:46.337Z,-6.11
2018-03-22T04:53:33.529Z,-6.16
2018-03-22T04:56:26.919Z,-6.18
2018-03-22T04:58:56.183Z,-6.23
2018-03-22T05:01:32.855Z,-6.30
2018-03-22T05:04:05.611Z,-6.33
2018-03-22T05:06:34.745Z,-6.43
2018-03-22T05:09:16.036Z,-6.44
2018-03-22T05:11:45.260Z,-6.56
2018-03-22T05:14:25.139Z,-6.50
2018-03-22T05:19:29.403Z,-6.44
2018-03-22T05:21:59.495Z,-6.43
2018-03-22T05:24:33.003Z,-6.36
2018-03-22T05:27:06.041Z,-6.27
2018-03-22T05:29:35.088Z,-6.17
2018-03-22T05:34:39.729Z,-5.95
2018-03-22T05:37:08.768Z,-5.82
2018-03-22T05:39:37.824Z,-5.64
2018-03-22T05:44:42.088Z,-5.36
2018-03-22T05:47:28.927Z,-5.38
2018-03-22T05:49:58.000Z,-5.41
2018-03-22T05:52:30.839Z,-5.36
2018-03-22T05:55:03.660Z,-5.34
2018-03-22T05:57:33.608Z,-5.35
2018-03-22T06:00:02.664Z,-5.30
2018-03-22T06:02:55.270Z,-5.17
2018-03-22T06:05:25.302Z,-5.01
2018-03-22T06:07:56.286Z,-4.96
2018-03-22T06:10:28.719Z,-4.88
2018-03-22T06:12:57.772Z,-4.82
2018-03-22T06:15:28.197Z,-4.74
2018-03-22T06:17:57.246Z,-4.59
2018-03-22T06:20:26.328Z,-4.58
2018-03-22T06:22:55.571Z,-4.43
2018-03-22T06:25:24.624Z,-4.29
2018-03-22T06:27:53.684Z,-4.19
2018-03-22T06:30:26.838Z,-4.06
2018-03-22T06:32:56.123Z,-4.00
2018-03-22T06:35:34.970Z,-3.96
2018-03-22T06:38:05.939Z,-3.81
2018-03-22T06:40:36.107Z,-3.67
2018-03-22T06:43:05.187Z,-3.54
2018-03-22T06:45:38.316Z,-3.22
2018-03-22T06:48:07.545Z,-3.21
2018-03-22T06:50:38.856Z,-3.08
2018-03-22T06:53:07.932Z,-3.04
2018-03-22T06:55:38.012Z,-2.95
2018-03-22T07:00:42.304Z,-2.64
2018-03-22T07:03:16.163Z,-2.60
2018-03-22T07:05:45.413Z,-2.51
2018-03-22T07:08:15.211Z,-2.44
2018-03-22T07:10:45.163Z,-2.44
2018-03-22T07:13:14.291Z,-2.43
2018-03-22T07:15:44.185Z,-2.45
2018-03-22T07:18:13.902Z,-2.37
2018-03-22T07:20:43.045Z,-2.23
2018-03-22T07:23:12.430Z,-2.17
2018-03-22T07:25:41.462Z,-2.08
2018-03-22T07:30:45.979Z,-1.75
2018-03-22T07:33:32.455Z,-1.73
2018-03-22T07:38:39.856Z,-1.65
2018-03-22T07:41:13.030Z,-1.55
2018-03-22T07:43:42.894Z,-1.40
2018-03-22T07:46:15.162Z,-1.10
2018-03-22T07:48:44.529Z,-1.12
2018-03-22T07:51:13.591Z,-1.03
2018-03-22T07:53:43.023Z,-0.96
2018-03-22T07:56:14.109Z,-0.64
2018-03-22T07:58:43.176Z,-0.58
2018-03-22T08:03:49.000Z,-0.26
2018-03-22T08:06:28.315Z,-0.01
2018-03-22T08:08:57.795Z,0.14
2018-03-22T08:11:26.847Z,0.32
2018-03-22T08:13:55.912Z,0.55
2018-03-22T08:19:01.693Z,0.96
2018-03-22T08:21:33.787Z,0.89
2018-03-22T08:24:04.813Z,1.17
2018-03-22T08:26:35.707Z,1.73
2018-03-22T08:31:41.025Z,2.39
2018-03-22T08:34:13.814Z,2.72
2018-03-22T08:36:43.048Z,2.91
2018-03-22T08:39:12.118Z,3.16
2018-03-22T08:41:41.150Z,3.49
2018-03-22T08:44:13.899Z,3.62
2018-03-22T08:46:42.931Z,3.31
2018-03-22T08:49:12.535Z,3.70
2018-03-22T08:51:41.583Z,3.70
2018-03-22T08:54:22.958Z,3.33
2018-03-22T08:56:51.999Z,2.90
2018-03-22T08:59:26.646Z,3.04
2018-03-22T09:01:55.695Z,2.68
2018-03-22T09:07:00.786Z,3.76
2018-03-22T09:09:35.526Z,4.67
2018-03-22T09:12:04.628Z,5.44
2018-03-22T09:14:34.681Z,6.17
2018-03-22T09:17:03.717Z,6.23
2018-03-22T09:19:33.704Z,6.13
2018-03-22T09:22:04.550Z,7.53
2018-03-22T09:24:33.576Z,8.24
2018-03-22T09:29:40.575Z,8.85
2018-03-22T09:32:09.611Z,9.46
2018-03-22T09:37:14.019Z,8.95
2018-03-22T09:39:43.066Z,9.24
2018-03-22T09:42:14.226Z,8.89
2018-03-22T09:44:47.151Z,9.12
2018-03-22T09:47:17.263Z,9.31
2018-03-22T09:49:46.554Z,9.88
2018-03-22T09:52:24.093Z,11.05
2018-03-22T09:54:56.645Z,12.93
2018-03-22T09:57:27.664Z,11.11
2018-03-22T10:00:01.055Z,13.21
2018-03-22T10:02:32.683Z,12.05
2018-03-22T10:07:40.253Z,10.74
2018-03-22T10:10:11.182Z,11.76
2018-03-22T10:12:40.220Z,11.88
2018-03-22T10:15:10.283Z,11.86
2018-03-22T10:17:42.202Z,11.74
2018-03-22T10:20:13.074Z,11.01
2018-03-22T10:25:19.606Z,12.44
2018-03-22T10:27:50.365Z,12.77
2018-03-22T10:30:19.403Z,12.25
2018-03-22T10:32:48.607Z,11.60
2018-03-22T10:35:28.586Z,11.38
2018-03-22T10:38:00.227Z,11.14
2018-03-22T10:40:33.107Z,10.72
2018-03-22T10:43:02.140Z,10.87
2018-03-22T10:45:36.806Z,11.09
2018-03-22T10:48:07.356Z,11.18
2018-03-22T10:50:37.193Z,11.43
2018-03-22T10:53:09.691Z,10.86
2018-03-22T10:55:38.719Z,11.69
2018-03-22T11:03:25.374Z,9.37
2018-03-22T11:05:57.066Z,8.70
2018-03-22T11:08:26.923Z,9.75
2018-03-22T11:10:57.209Z,12.77
2018-03-22T11:13:27.383Z,13.29
2018-03-22T11:15:56.711Z,14.86
2018-03-22T11:18:29.784Z,12.34
2018-03-22T11:20:59.504Z,10.20
2018-03-22T11:23:29.435Z,9.50
2018-03-22T11:26:00.107Z,8.96
2018-03-22T11:28:31.549Z,10.14
2018-03-22T11:31:03.467Z,13.75
2018-03-22T11:33:33.500Z,15.38
2018-03-22T11:36:12.398Z,14.85
2018-03-22T11:38:54.000Z,14.07
2018-03-22T11:43:59.397Z,11.02
2018-03-22T11:46:28.436Z,11.64
2018-03-22T11:48:58.175Z,12.85
2018-03-22T11:51:27.223Z,12.54
2018-03-22T11:53:59.279Z,12.51
2018-03-22T11:56:29.861Z,10.62
2018-03-22T11:58:58.888Z,9.56
2018-03-22T12:01:28.995Z,9.40
2018-03-22T12:03:58.078Z,8.66
2018-03-22T12:06:27.128Z,9.29
2018-03-22T12:08:56.442Z,9.90
2018-03-22T12:11:25.499Z,10.24
2018-03-22T12:13:56.410Z,9.80
2018-03-22T12:19:01.472Z,8.90
2018-03-22T12:21:30.507Z,8.91
2018-03-22T12:24:00.376Z,8.82
2018-03-22T12:26:29.388Z,8.72
2018-03-22T12:28:59.313Z,9.07
2018-03-22T12:31:28.351Z,8.94
2018-03-22T12:33:58.043Z,8.68
2018-03-22T12:36:36.805Z,7.94
2018-03-22T12:39:15.023Z,8.12
2018-03-22T12:41:44.520Z,8.15
2018-03-22T12:44:15.412Z,8.70
2018-03-22T12:46:49.480Z,8.25
2018-03-22T12:49:20.524Z,7.83
2018-03-22T12:51:49.567Z,8.08
2018-03-22T12:54:19.560Z,7.85
2018-03-22T12:56:48.575Z,6.93
2018-03-22T13:01:54.707Z,5.74
2018-03-22T13:04:33.297Z,5.95
2018-03-22T13:07:02.342Z,6.04
2018-03-22T13:09:34.003Z,6.02
2018-03-22T13:12:04.198Z,6.28
2018-03-22T13:14:38.524Z,6.82
2018-03-22T13:17:07.554Z,7.53
2018-03-22T13:22:16.162Z,7.10
2018-03-22T13:24:50.438Z,7.92
2018-03-22T13:29:54.837Z,8.40
2018-03-22T13:32:25.083Z,8.69
2018-03-22T13:37:33.484Z,10.45
2018-03-22T13:40:05.377Z,11.99
2018-03-22T13:42:37.491Z,13.08
2018-03-22T13:45:10.189Z,13.07
2018-03-22T13:50:18.831Z,12.39
2018-03-22T13:52:49.812Z,12.99
2018-03-22T13:55:18.831Z,12.70
2018-03-22T14:00:25.125Z,10.92
2018-03-22T14:02:56.040Z,10.21
2018-03-22T14:05:25.067Z,9.98
2018-03-22T14:07:56.857Z,10.21
2018-03-22T14:10:25.883Z,9.32
2018-03-22T14:12:59.254Z,9.81
2018-03-22T14:15:29.572Z,10.39
2018-03-22T14:17:59.083Z,10.91
2018-03-22T14:20:28.149Z,11.40
2018-03-22T14:22:57.565Z,10.29
2018-03-22T14:25:26.711Z,11.19
2018-03-22T14:27:56.019Z,11.07
2018-03-22T14:30:28.181Z,9.53
2018-03-22T14:32:57.226Z,8.74
2018-03-22T14:35:26.679Z,8.42
2018-03-22T14:37:57.376Z,8.27
2018-03-22T14:40:27.298Z,8.04
2018-03-22T14:43:00.400Z,7.72
2018-03-22T14:45:29.436Z,7.74
2018-03-22T14:47:59.319Z,7.96
2018-03-22T14:50:28.334Z,7.40
2018-03-22T14:52:58.411Z,6.94
2018-03-22T14:55:31.427Z,7.04
2018-03-22T14:58:03.929Z,6.67
2018-03-22T15:00:36.227Z,6.23
2018-03-22T15:03:07.856Z,5.99
2018-03-22T15:05:39.156Z,5.69
2018-03-22T15:08:13.149Z,6.20
2018-03-22T15:10:43.992Z,6.26
2018-03-22T15:13:13.993Z,7.10
2018-03-22T15:15:47.512Z,7.10
2018-03-22T15:18:18.790Z,7.19
2018-03-22T15:20:47.841Z,6.89
2018-03-22T15:25:54.172Z,5.95
2018-03-22T15:28:25.119Z,5.49
2018-03-22T15:30:56.243Z,5.62
2018-03-22T15:36:00.518Z,5.38
2018-03-22T15:38:32.372Z,5.39
2018-03-22T15:41:07.267Z,5.11
2018-03-22T15:43:38.222Z,5.10
2018-03-22T15:48:43.535Z,5.00
2018-03-22T15:51:12.549Z,4.93
2018-03-22T15:53:43.315Z,4.75
2018-03-22T15:56:16.629Z,4.79
2018-03-22T15:58:47.560Z,4.83
2018-03-22T16:01:20.430Z,4.65
2018-03-22T16:03:51.154Z,4.17
2018-03-22T16:06:25.484Z,3.99
2018-03-22T16:09:10.114Z,3.87
2018-03-22T16:11:39.127Z,3.88
2018-03-22T16:14:32.372Z,3.88
2018-03-22T16:17:09.632Z,3.46
2018-03-22T16:19:38.755Z,3.38
2018-03-22T16:22:10.212Z,3.23
2018-03-22T16:24:43.069Z,3.09
2018-03-22T16:27:14.036Z,3.14
2018-03-22T16:29:44.715Z,2.97
2018-03-22T16:32:15.399Z,2.95
2018-03-22T16:34:46.242Z,2.74
2018-03-22T16:37:15.345Z,2.62
2018-03-22T16:39:48.003Z,2.68
2018-03-22T16:42:17.307Z,2.54
2018-03-22T16:44:46.350Z,2.61
2018-03-22T16:47:15.673Z,2.34
2018-03-22T16:49:44.718Z,2.41
2018-03-22T16:52:14.524Z,2.37
2018-03-22T16:54:43.551Z,2.15
2018-03-22T16:57:12.613Z,2.31
2018-03-22T16:59:41.648Z,2.08
2018-03-22T17:02:10.704Z,2.16
2018-03-22T17:04:50.376Z,2.00
2018-03-22T17:07:20.030Z,1.99
2018-03-22T17:09:54.819Z,1.81
2018-03-22T17:12:24.950Z,1.68
2018-03-22T17:15:03.783Z,1.45
2018-03-22T17:17:32.808Z,1.32
2018-03-22T17:20:02.786Z,1.20
2018-03-22T17:22:32.340Z,1.20
2018-03-22T17:27:41.064Z,1.12
2018-03-22T17:30:11.346Z,1.15
2018-03-22T17:32:40.389Z,1.12
2018-03-22T17:35:09.448Z,1.05
2018-03-22T17:37:40.141Z,1.08
2018-03-22T17:40:13.684Z,1.05
2018-03-22T17:42:42.935Z,1.01
2018-03-22T17:45:12.068Z,0.98
2018-03-22T17:50:23.188Z,1.21
2018-03-22T17:55:37.588Z,1.04
2018-03-22T17:58:06.646Z,0.97
2018-03-22T18:00:35.848Z,0.95
2018-03-22T18:03:04.875Z,0.90
2018-03-22T18:08:09.120Z,0.85
2018-03-22T18:10:38.183Z,0.74
2018-03-22T18:13:07.241Z,0.61
2018-03-22T18:15:36.337Z,0.65
2018-03-22T18:18:05.607Z,0.67
2018-03-22T18:20:34.662Z,0.54
2018-03-22T18:23:03.723Z,0.60
2018-03-22T18:25:32.781Z,0.69
2018-03-22T18:28:01.947Z,0.57
2018-03-22T18:30:31.272Z,0.59
2018-03-22T18:33:00.326Z,0.69
2018-03-22T18:35:29.404Z,0.53
2018-03-22T18:37:58.481Z,0.59
2018-03-22T18:40:27.536Z,0.54
2018-03-22T18:42:56.715Z,0.50
2018-03-22T18:45:25.747Z,0.58
2018-03-22T18:47:55.160Z,0.67
2018-03-22T18:50:24.238Z,0.78
2018-03-22T18:52:56.709Z,0.78
2018-03-22T18:55:25.754Z,0.81
2018-03-22T18:57:54.792Z,0.90
2018-03-22T19:00:23.996Z,0.79
2018-03-22T19:02:53.043Z,0.78
2018-03-22T19:08:00.796Z,0.72
2018-03-22T19:10:30.830Z,0.74
2018-03-22T19:13:01.852Z,0.64
2018-03-22T19:15:42.404Z,0.69
2018-03-22T19:18:11.446Z,0.85
2018-03-22T19:20:47.543Z,0.84
2018-03-22T19:23:18.764Z,0.59
2018-03-22T19:25:48.903Z,0.68
2018-03-22T19:28:17.965Z,0.74
2018-03-22T19:30:47.971Z,0.67
2018-03-22T19:33:17.021Z,0.73
2018-03-22T19:35:46.336Z,0.72
2018-03-22T19:38:15.741Z,0.59
2018-03-22T19:40:56.952Z,0.54
2018-03-22T19:51:11.719Z,0.57
2018-03-22T19:56:27.933Z,0.54
2018-03-22T19:58:59.036Z,0.69
2018-03-22T20:04:04.255Z,0.43
2018-03-22T20:06:33.310Z,0.50
2018-03-22T20:09:02.448Z,0.53
2018-03-22T20:11:31.499Z,0.49
2018-03-22T20:14:01.516Z,0.41
2018-03-22T20:16:35.124Z,0.50
2018-03-22T20:19:04.163Z,0.48
2018-03-22T20:21:33.232Z,0.46
2018-03-22T20:24:02.398Z,0.47
2018-03-22T20:29:07.607Z,0.54
2018-03-22T20:31:38.701Z,0.51
2018-03-22T20:34:07.762Z,0.50
2018-03-22T20:39:17.591Z,0.58
2018-03-22T20:41:52.468Z,0.58
2018-03-22T20:47:00.479Z,0.79
2018-03-22T20:49:32.876Z,0.75
2018-03-22T20:52:02.045Z,0.79
2018-03-22T20:54:31.979Z,0.84
2018-03-22T20:57:01.040Z,0.70
2018-03-22T20:59:30.179Z,0.76
2018-03-22T21:01:59.216Z,0.95
2018-03-22T21:04:30.191Z,0.78
2018-03-22T21:06:59.243Z,0.87
2018-03-22T21:09:36.683Z,0.81
2018-03-22T21:12:05.722Z,0.71
2018-03-22T21:14:34.797Z,0.74
2018-03-22T21:17:03.847Z,0.75
2018-03-22T21:19:33.891Z,0.63
2018-03-22T21:22:02.990Z,0.62
2018-03-22T21:24:34.416Z,0.53
2018-03-22T21:27:03.452Z,0.56
2018-03-22T21:29:52.319Z,0.74
2018-03-22T21:32:28.651Z,0.67
2018-03-22T21:34:57.699Z,0.58
2018-03-22T21:37:26.745Z,0.68
2018-03-22T21:39:56.697Z,0.73
2018-03-22T21:42:39.863Z,0.72
2018-03-22T21:45:08.912Z,0.77
2018-03-22T21:47:47.152Z,0.67
2018-03-22T21:50:16.200Z,0.76
2018-03-22T21:52:52.897Z,0.83
2018-03-22T21:55:21.928Z,0.70
2018-03-22T21:57:51.023Z,0.77
2018-03-22T22:00:20.090Z,0.79
2018-03-22T22:05:27.280Z,0.69
2018-03-22T22:07:56.326Z,0.62
2018-03-22T22:10:25.576Z,0.41
2018-03-22T22:15:30.079Z,0.49
2018-03-22T22:17:59.193Z,0.48
2018-03-22T22:20:28.262Z,0.50
2018-03-22T22:25:15.252Z,0.59
2018-03-22T22:27:49.723Z,0.60
2018-03-22T22:30:18.838Z,0.70
2018-03-22T22:32:47.888Z,0.70
2018-03-22T22:35:16.938Z,0.68
2018-03-22T22:37:46.018Z,0.79
2018-03-22T22:40:15.267Z,0.73
2018-03-22T22:42:44.298Z,0.70
2018-03-22T22:45:13.375Z,0.85
2018-03-22T22:47:44.429Z,0.78
2018-03-22T22:50:13.495Z,0.74
2018-03-22T22:52:42.531Z,0.85
2018-03-22T22:55:11.579Z,0.90
2018-03-22T22:57:40.631Z,0.88
2018-03-22T23:00:13.607Z,0.88
2018-03-22T23:02:42.664Z,0.75
2018-03-22T23:05:11.715Z,0.81
2018-03-22T23:07:40.795Z,0.79
2018-03-22T23:10:09.848Z,0.71
2018-03-22T23:12:39.825Z,0.71
2018-03-22T23:15:08.907Z,0.77
2018-03-22T23:17:38.057Z,0.81
2018-03-22T23:20:07.120Z,0.71
2018-03-22T23:22:36.165Z,0.76
2018-03-22T23:27:52.529Z,0.81
2018-03-22T23:30:21.571Z,0.78
2018-03-22T23:35:27.581Z,0.72
2018-03-22T23:37:56.648Z,0.71
2018-03-22T23:40:25.699Z,0.74
2018-03-22T23:42:54.763Z,0.77
2018-03-22T23:45:24.022Z,0.72
2018-03-22T23:47:53.043Z,0.76
2018-03-22T23:50:22.092Z,0.70
2018-03-22T23:52:51.338Z,0.77
2018-03-22T23:55:20.511Z,0.84
2018-03-22T23:57:49.544Z,0.67
